Time;durP1;ratioP1;P1;durP2;ratioP2;P2;SDS_P1;SDS_P2;PMS_P1;PMS_P2;Temp;Humidity;BMP_temperature;BMP_pressure;BME280_temperature;BME280_humidity;BME280_pressure;Samples;Min_cycle;Max_cycle;Signal;HPM_P1;HPM_P2
2022/05/17 00:01:22;;;;;;;;;7.00;7.00;;;;;25.29;50.11;101866.56;6090448;23;48106;-88
2022/05/17 00:03:48;;;;;;;;;5.40;3.80;;;;;24.95;49.93;101806.06;6138694;23;45423;-88
2022/05/17 00:06:13;;;;;;;;;6.60;6.00;;;;;25.07;49.98;101824.72;6116233;23;45863;-87
2022/05/17 00:08:39;;;;;;;;;7.00;7.00;;;;;24.99;49.76;101817.38;6115158;23;45715;-88
2022/05/17 00:11:06;;;;;;;;;7.25;6.50;;;;;24.78;49.98;101788.97;6120110;23;47706;-88
2022/05/17 00:13:32;;;;;;;;;7.00;7.00;;;;;24.98;49.58;101821.16;6171028;23;45323;-88
2022/05/17 00:15:58;;;;;;;;;14.75;8.00;;;;;24.86;49.86;101805.22;6142414;23;45615;-88
2022/05/17 00:18:23;;;;;;;;;5.40;5.40;;;;;25.01;50.17;101827.06;6092480;23;45606;-88
2022/05/17 00:20:49;;;;;;;;;7.00;7.00;;;;;25.03;49.95;101830.50;6164599;23;46154;-88
2022/05/17 00:23:17;;;;;;;;;7.25;7.00;;;;;25.38;49.99;101880.09;6115168;23;45723;-88
2022/05/17 00:25:44;;;;;;;;;11.00;8.60;;;;;25.00;49.24;101825.38;6141266;23;45719;-88
2022/05/17 00:28:09;;;;;;;;;8.00;7.00;;;;;24.76;49.43;101788.28;6119529;23;45515;-87
2022/05/17 00:30:35;;;;;;;;;8.00;6.25;;;;;24.73;48.97;101781.31;6167105;23;45858;-88
2022/05/17 00:33:00;;;;;;;;;8.50;7.50;;;;;25.03;48.73;101824.22;6144328;23;45650;-87
2022/05/17 00:35:26;;;;;;;;;10.25;8.25;;;;;25.30;48.74;101861.97;6164136;23;45751;-88
2022/05/17 00:37:51;;;;;;;;;6.75;5.00;;;;;24.94;48.70;101809.78;6139757;23;45277;-88
2022/05/17 00:40:17;;;;;;;;;8.75;7.00;;;;;24.99;48.19;101818.25;6114977;23;47529;-87
2022/05/17 00:42:42;;;;;;;;;8.00;7.00;;;;;24.78;48.44;101789.81;6139719;23;45523;-88
2022/05/17 00:45:09;;;;;;;;;7.50;7.00;;;;;25.12;48.66;101838.59;6166526;23;45585;-88
2022/05/17 00:47:56;;;;;;;;;9.40;7.00;;;;;24.84;48.60;101787.44;6139916;23;45377;-88
2022/05/17 00:50:27;;;;;;;;;6.80;6.80;;;;;24.77;48.47;101781.84;6142118;23;45725;-88
2022/05/17 00:52:54;;;;;;;;;4.60;4.40;;;;;24.71;48.41;101777.94;6140701;23;45360;-88
2022/05/17 00:55:23;;;;;;;;;8.20;7.00;;;;;24.53;48.53;101749.16;6142368;23;45522;-88
2022/05/17 00:58:09;;;;;;;;;7.20;7.20;;;;;24.60;48.71;101754.75;6094545;23;45423;-88
2022/05/17 01:00:38;;;;;;;;;8.00;7.40;;;;;24.61;48.64;101753.75;6118883;23;45834;-88
2022/05/17 01:03:06;;;;;;;;;9.60;6.80;;;;;24.53;48.80;101740.16;6116132;23;45315;-88
2022/05/17 01:05:34;;;;;;;;;5.60;5.00;;;;;24.46;48.49;101726.47;6115532;23;45503;-87
2022/05/17 01:07:59;;;;;;;;;5.80;5.80;;;;;24.98;48.81;101811.13;6115758;23;45539;-88
2022/05/17 01:10:26;;;;;;;;;5.75;5.00;;;;;24.52;48.94;101735.78;6114784;23;46034;-87
2022/05/17 01:15:36;;;;;;;;;7.00;4.80;;;;;24.99;48.72;101806.53;6131242;23;45413;-88
2022/05/17 01:18:03;;;;;;;;;5.25;5.25;;;;;24.60;48.53;101744.75;6093109;23;45653;-87
2022/05/17 01:20:28;;;;;;;;;8.60;7.80;;;;;24.86;48.69;101785.38;6114910;23;46531;-87
2022/05/17 01:22:53;;;;;;;;;8.00;8.00;;;;;24.64;48.62;101749.84;6141392;23;45421;-87
2022/05/17 01:25:19;;;;;;;;;7.00;6.25;;;;;24.63;48.52;101746.25;6119033;23;45700;-88
2022/05/17 01:27:50;;;;;;;;;8.00;7.25;;;;;25.08;48.54;101821.81;6115822;23;45643;-87
2022/05/17 01:30:18;;;;;;;;;8.40;8.40;;;;;24.70;48.55;101757.25;6113921;23;48091;-88
2022/05/17 01:32:43;;;;;;;;;8.00;7.80;;;;;24.64;48.68;101749.84;6115149;23;45671;-88
2022/05/17 01:35:09;;;;;;;;;6.25;6.25;;;;;24.40;49.07;101695.47;6117579;23;45232;-88
2022/05/17 01:37:34;;;;;;;;;9.75;7.00;;;;;24.59;48.93;101737.63;6143512;23;45592;-88
2022/05/17 01:40:00;;;;;;;;;7.00;7.00;;;;;24.29;48.99;101688.53;6165002;23;46280;-87
2022/05/17 01:42:25;;;;;;;;;8.25;8.00;;;;;24.62;48.98;101735.56;6144675;23;45599;-88
2022/05/17 01:44:51;;;;;;;;;7.50;7.00;;;;;24.58;49.25;101729.66;6119182;23;45426;-87
2022/05/17 01:47:16;;;;;;;;;9.00;7.75;;;;;24.57;49.44;101723.41;6141319;23;45698;-87
2022/05/17 01:49:42;;;;;;;;;9.75;8.75;;;;;24.43;49.18;101705.97;6166783;23;46702;-88
2022/05/17 01:52:07;;;;;;;;;9.50;9.50;;;;;24.56;49.13;101716.25;6142335;23;45478;-88
2022/05/17 01:54:33;;;;;;;;;7.75;7.50;;;;;25.02;49.17;101790.78;6140479;23;45478;-87
2022/05/17 01:56:58;;;;;;;;;9.00;8.00;;;;;24.48;49.07;101702.72;6142400;23;45676;-88
2022/05/17 01:59:24;;;;;;;;;8.75;8.00;;;;;24.77;49.29;101763.69;6117272;23;46122;-87
2022/05/17 02:01:49;;;;;;;;;11.00;9.25;;;;;24.82;49.95;101763.16;6116026;23;45744;-87
2022/05/17 02:04:15;;;;;;;;;10.00;7.75;;;;;24.64;49.95;101734.38;6117947;23;45630;-88
2022/05/17 02:06:40;;;;;;;;;8.25;8.25;;;;;24.58;49.84;101735.91;6166677;23;45410;-88
2022/05/17 02:09:05;;;;;;;;;8.00;8.00;;;;;24.56;49.86;101721.69;6142363;23;46009;-88
2022/05/17 02:11:31;;;;;;;;;8.00;8.00;;;;;24.59;49.99;101734.91;6140168;23;45801;-88
2022/05/17 02:13:56;;;;;;;;;8.50;8.00;;;;;24.72;49.91;101760.66;6139086;23;46151;-88
2022/05/17 02:16:22;;;;;;;;;9.75;9.00;;;;;24.58;49.89;101732.38;6116552;23;45787;-88
2022/05/17 02:18:47;;;;;;;;;7.25;7.00;;;;;24.29;49.83;101683.13;6140730;23;45994;-87
2022/05/17 02:21:13;;;;;;;;;8.00;7.50;;;;;24.64;49.47;101731.66;6140538;23;45380;-87
2022/05/17 02:23:38;;;;;;;;;9.00;8.00;;;;;24.40;49.83;101705.47;6170186;23;45229;-88
2022/05/17 02:26:03;;;;;;;;;8.25;7.75;;;;;24.54;49.75;101723.75;6135276;23;44854;-88
2022/05/17 02:28:29;;;;;;;;;9.00;9.00;;;;;24.40;49.94;101700.03;6145136;23;47303;-88
2022/05/17 02:30:54;;;;;;;;;8.75;8.00;;;;;24.78;50.01;101768.13;6149309;23;45068;-88
2022/05/17 02:33:20;;;;;;;;;8.50;7.75;;;;;24.33;49.69;101689.88;6151005;23;45645;-88
2022/05/17 02:35:45;;;;;;;;;7.75;6.75;;;;;24.57;50.01;101726.09;6143691;23;45245;-87
2022/05/17 02:38:11;;;;;;;;;9.25;6.75;;;;;24.59;50.05;101734.91;6138900;23;45916;-87
2022/05/17 02:40:36;;;;;;;;;6.00;6.00;;;;;24.81;49.92;101765.03;6113733;23;45901;-88
2022/05/17 02:43:02;;;;;;;;;8.25;8.25;;;;;24.34;50.38;101679.88;6116692;23;45619;-88
2022/05/17 02:45:28;;;;;;;;;8.20;7.20;;;;;24.47;49.72;101707.28;6115665;23;45588;-88
2022/05/17 02:47:53;;;;;;;;;10.25;8.75;;;;;24.11;50.25;101657.03;6114778;23;46601;-87
2022/05/17 02:50:19;;;;;;;;;7.50;7.25;;;;;24.42;49.84;101698.00;6138983;23;45771;-87
2022/05/17 02:52:45;;;;;;;;;7.00;6.40;;;;;24.21;50.18;101667.66;6141268;23;45857;-87
2022/05/17 02:55:10;;;;;;;;;8.00;7.00;;;;;24.89;50.18;101793.19;6141889;23;45413;-87
2022/05/17 02:57:36;;;;;;;;;5.75;5.75;;;;;24.90;50.29;101792.16;6118372;23;47255;-87
2022/05/17 03:00:01;;;;;;;;;7.00;7.00;;;;;24.27;50.23;101690.53;6118761;23;45660;-87
2022/05/17 03:02:27;;;;;;;;;9.75;8.00;;;;;24.44;50.27;101712.25;6139237;23;45358;-87
2022/05/17 03:04:53;;;;;;;;;9.50;8.75;;;;;24.46;50.19;101721.91;6114736;23;45810;-88
2022/05/17 03:07:18;;;;;;;;;7.00;6.75;;;;;24.33;50.46;101705.28;6114761;23;46729;-86
2022/05/17 03:09:44;;;;;;;;;7.50;6.75;;;;;24.46;50.47;101712.91;6114981;23;45322;-87
2022/05/17 03:12:10;;;;;;;;;10.50;9.00;;;;;24.30;50.45;101695.63;6117090;23;45325;-87
2022/05/17 03:14:35;;;;;;;;;8.00;7.80;;;;;24.30;50.39;101702.94;6115246;23;45618;-87
2022/05/17 03:17:01;;;;;;;;;9.75;9.25;;;;;24.40;50.61;101713.59;6167996;23;46087;-88
2022/05/17 03:19:26;;;;;;;;;6.25;6.25;;;;;24.16;50.59;101683.59;6117257;23;45276;-88
2022/05/17 03:21:52;;;;;;;;;8.25;8.25;;;;;24.49;50.18;101737.81;6142896;23;45595;-87
2022/05/17 03:24:17;;;;;;;;;6.50;6.00;;;;;24.35;50.26;101709.56;6091736;23;45459;-87
2022/05/17 03:26:42;;;;;;;;;10.00;7.00;;;;;24.46;50.42;101726.47;6114547;23;45552;-87
2022/05/17 03:29:08;;;;;;;;;9.00;8.00;;;;;24.75;50.49;101773.88;6167700;23;45756;-88
2022/05/17 03:31:35;;;;;;;;;7.40;7.40;;;;;24.70;50.66;101765.38;6163986;23;45497;-88
2022/05/17 03:34:00;;;;;;;;;8.40;8.00;;;;;24.36;50.48;101713.09;6114618;23;45569;-88
2022/05/17 03:36:26;;;;;;;;;10.00;6.00;;;;;24.42;50.50;101728.66;6089310;23;48248;-87
2022/05/17 03:38:51;;;;;;;;;8.25;6.00;;;;;24.26;50.72;101699.69;6138188;23;45376;-87
2022/05/17 03:41:17;;;;;;;;;8.50;7.00;;;;;24.13;50.58;101686.66;6139622;23;45338;-87
2022/05/17 03:43:42;;;;;;;;;7.75;6.50;;;;;24.57;50.32;101744.25;6119687;23;45692;-87
2022/05/17 03:46:08;;;;;;;;;7.00;6.25;;;;;24.40;50.34;101722.59;6116274;23;45680;-87
2022/05/17 03:48:33;;;;;;;;;7.00;6.00;;;;;24.29;50.11;101704.81;6113296;23;45792;-87
2022/05/17 03:50:59;;;;;;;;;8.00;8.00;;;;;24.23;50.28;101700.03;6141362;23;45760;-87
2022/05/17 03:53:24;;;;;;;;;7.50;6.25;;;;;24.00;50.04;101665.50;6115220;23;45785;-88
2022/05/17 03:55:50;;;;;;;;;5.50;5.50;;;;;24.64;50.12;101777.78;6116433;23;47648;-87
2022/05/17 03:58:15;;;;;;;;;8.50;6.50;;;;;24.18;50.34;101694.28;6114807;23;45671;-88
2022/05/17 04:00:40;;;;;;;;;7.50;6.25;;;;;24.43;50.51;101737.66;6137795;23;45386;-88
2022/05/17 04:03:06;;;;;;;;;6.75;5.75;;;;;24.59;50.30;101764.75;6140791;23;45909;-87
2022/05/17 04:05:31;;;;;;;;;5.50;5.50;;;;;24.24;50.41;101707.16;6139843;23;45381;-88
2022/05/17 04:07:57;;;;;;;;;6.25;6.25;;;;;24.24;50.30;101704.44;6115832;23;46466;-87
2022/05/17 04:10:22;;;;;;;;;8.00;8.00;;;;;24.38;50.53;101730.88;6116353;23;45690;-87
2022/05/17 04:12:48;;;;;;;;;6.75;6.75;;;;;24.47;50.35;101741.69;6117693;23;45608;-87
2022/05/17 04:15:15;;;;;;;;;9.75;7.00;;;;;24.09;50.40;101691.59;6117851;23;47980;-86
2022/05/17 04:17:41;;;;;;;;;6.80;6.20;;;;;24.04;50.43;101680.38;6138032;23;45755;-87
2022/05/17 04:20:08;;;;;;;;;9.25;6.75;;;;;24.32;50.26;101730.72;6113455;23;45655;-87
2022/05/17 04:22:33;;;;;;;;;10.60;6.40;;;;;24.20;50.66;101711.22;6113179;23;45718;-88
2022/05/17 04:24:58;;;;;;;;;7.00;7.00;;;;;24.54;50.70;101761.72;6113949;23;46140;-87
2022/05/17 04:27:24;;;;;;;;;7.75;7.75;;;;;24.20;50.83;101722.06;6167178;23;45676;-87
2022/05/17 04:29:50;;;;;;;;;7.25;6.00;;;;;24.21;50.89;101724.59;6139326;23;45682;-87
2022/05/17 04:32:15;;;;;;;;;8.00;6.25;;;;;24.28;50.46;101727.50;6144256;23;45785;-87
2022/05/17 04:34:41;;;;;;;;;6.50;5.50;;;;;24.60;50.70;101785.44;6140914;23;46408;-87
2022/05/17 04:37:06;;;;;;;;;8.75;6.25;;;;;24.32;51.01;101731.56;6115575;23;45832;-86
2022/05/17 04:39:32;;;;;;;;;6.75;6.75;;;;;23.94;50.96;101681.44;6140333;23;45546;-86
2022/05/17 04:41:57;;;;;;;;;6.75;6.75;;;;;24.30;50.90;101739.00;6140714;23;45641;-86
2022/05/17 04:44:23;;;;;;;;;8.00;8.00;;;;;24.58;50.70;101779.31;6168004;23;46297;-87
2022/05/17 04:46:48;;;;;;;;;9.50;9.50;;;;;23.94;50.43;101678.72;6120522;23;46260;-87
2022/05/17 04:49:14;;;;;;;;;7.75;7.75;;;;;23.97;50.87;101676.69;6117502;23;45396;-86
2022/05/17 04:51:39;;;;;;;;;7.75;7.00;;;;;24.29;50.73;101737.34;6142599;23;45605;-87
2022/05/17 04:54:05;;;;;;;;;6.50;5.50;;;;;24.04;50.70;101692.06;6163945;23;46283;-87
2022/05/17 04:56:34;;;;;;;;;8.25;8.25;;;;;24.33;50.99;101741.38;6117568;23;45423;-87
2022/05/17 04:59:00;;;;;;;;;9.20;7.20;;;;;23.89;50.73;101662.13;6117315;23;45797;-86
2022/05/17 05:01:25;;;;;;;;;8.75;7.25;;;;;23.96;50.92;101683.09;6115895;23;45623;-87
2022/05/17 05:03:51;;;;;;;;;8.50;6.75;;;;;23.74;50.85;101652.97;6114579;23;48448;-87
2022/05/17 05:06:16;;;;;;;;;6.25;5.75;;;;;24.42;50.89;101757.66;6148146;23;45481;-86
2022/05/17 05:08:41;;;;;;;;;9.00;7.25;;;;;23.91;51.10;101680.91;6166044;23;45747;-87
2022/05/17 05:11:07;;;;;;;;;10.00;9.25;;;;;23.80;51.19;101665.84;6119363;23;45396;-86
2022/05/17 05:13:32;;;;;;;;;8.00;8.00;;;;;24.11;51.31;101723.94;6142940;23;48254;-87
2022/05/17 05:15:58;;;;;;;;;7.00;7.00;;;;;23.94;50.93;101683.28;6146803;23;45415;-87
2022/05/17 05:18:23;;;;;;;;;8.00;8.00;;;;;23.97;51.13;101706.47;6169040;23;45566;-86
2022/05/17 05:20:49;;;;;;;;;8.50;8.25;;;;;24.27;51.22;101756.44;6143011;23;45854;-86
2022/05/17 05:23:15;;;;;;;;;9.75;8.50;;;;;24.25;51.51;101746.78;6117066;23;45444;-86
2022/05/17 05:25:40;;;;;;;;;7.50;7.50;;;;;24.15;51.35;101734.25;6119934;23;45922;-87
2022/05/17 05:28:07;;;;;;;;;8.50;7.50;;;;;24.03;51.22;101719.34;6119072;23;45815;-86
2022/05/17 05:30:33;;;;;;;;;7.80;6.80;;;;;23.80;51.45;101685.66;6119361;23;45697;-87
2022/05/17 05:32:58;;;;;;;;;6.75;6.00;;;;;24.19;51.46;101742.88;6121488;23;47201;-89
2022/05/17 05:35:25;;;;;;;;;6.00;6.00;;;;;23.94;51.53;101708.53;6145896;23;45389;-88
2022/05/17 05:37:51;;;;;;;;;7.40;6.00;;;;;23.93;51.62;101712.25;6094302;23;45809;-89
2022/05/17 05:40:16;;;;;;;;;11.50;8.00;;;;;24.27;51.63;101761.00;6099606;23;45532;-89
2022/05/17 05:42:42;;;;;;;;;7.00;7.00;;;;;23.96;51.72;101723.75;6121413;23;46134;-88
2022/05/17 05:45:08;;;;;;;;;8.00;7.00;;;;;24.03;51.62;101738.34;6147910;23;45505;-88
2022/05/17 05:47:33;;;;;;;;;7.60;5.80;;;;;23.66;51.53;101668.22;6119193;23;45792;-87
2022/05/17 05:49:59;;;;;;;;;8.50;7.00;;;;;23.88;52.06;101706.47;6151378;23;45767;-88
2022/05/17 05:52:24;;;;;;;;;8.25;8.25;;;;;24.02;51.67;101731.22;6118901;23;46783;-87
2022/05/17 05:54:50;;;;;;;;;8.75;7.00;;;;;23.94;52.54;101724.78;6171420;23;45716;-89
2022/05/17 05:57:15;;;;;;;;;8.00;6.75;;;;;23.96;52.92;101721.03;6146276;23;45403;-89
2022/05/17 05:59:41;;;;;;;;;8.00;7.00;;;;;23.60;53.28;101663.47;6151316;23;45513;-88
2022/05/17 06:02:08;;;;;;;;;6.50;5.75;;;;;23.97;53.59;101728.16;6175669;23;45559;-91
2022/05/17 06:04:34;;;;;;;;;9.20;7.20;;;;;23.82;53.52;101709.88;6130240;23;45279;-88
2022/05/17 06:06:59;;;;;;;;;11.50;9.25;;;;;23.64;52.51;101677.53;6103353;23;45330;-88
2022/05/17 06:09:25;;;;;;;;;7.75;6.25;;;;;24.22;52.65;101780.50;6147266;23;45547;-88
2022/05/17 06:11:51;;;;;;;;;9.50;7.50;;;;;24.22;52.17;101779.66;6119389;23;45610;-88
2022/05/17 06:14:16;;;;;;;;;6.25;5.75;;;;;24.32;51.98;101802.06;6126191;23;45675;-88
2022/05/17 06:16:42;;;;;;;;;6.75;6.75;;;;;23.64;51.83;101681.06;6126164;23;45576;-88
2022/05/17 06:19:07;;;;;;;;;7.25;7.25;;;;;23.97;51.65;101744.41;6150762;23;45564;-89
2022/05/17 06:21:33;;;;;;;;;7.00;7.00;;;;;24.37;51.67;101815.97;6127111;23;48129;-89
2022/05/17 06:23:59;;;;;;;;;10.25;7.00;;;;;23.92;51.50;101743.06;6125932;23;45717;-91
2022/05/17 06:26:24;;;;;;;;;5.75;5.25;;;;;24.04;51.75;101753.56;6125242;23;45675;-90
2022/05/17 06:28:50;;;;;;;;;10.00;8.75;;;;;24.07;51.73;101761.34;6175734;23;45506;-89
2022/05/17 06:31:15;;;;;;;;;6.50;6.50;;;;;23.95;51.71;101733.75;6126894;23;46057;-89
2022/05/17 06:33:40;;;;;;;;;9.00;7.00;;;;;23.91;51.57;101730.53;6129384;23;45457;-88
2022/05/17 06:36:06;;;;;;;;;7.75;7.00;;;;;23.80;51.73;101729.00;6126183;23;45692;-89
2022/05/17 06:38:31;;;;;;;;;6.00;6.00;;;;;23.71;51.50;101708.34;6145822;23;45494;-89
2022/05/17 06:40:57;;;;;;;;;7.00;7.00;;;;;24.09;51.63;101769.34;6139757;23;47884;-89
2022/05/17 06:43:22;;;;;;;;;6.00;6.00;;;;;23.68;51.43;101709.53;6141107;23;45889;-89
2022/05/17 06:45:48;;;;;;;;;6.50;5.75;;;;;24.06;51.55;101773.22;6140672;23;45391;-88
2022/05/17 06:48:14;;;;;;;;;6.75;5.50;;;;;23.86;51.83;101732.91;6164751;23;45506;-89
2022/05/17 06:50:39;;;;;;;;;7.00;6.75;;;;;23.88;52.08;101747.13;6119222;23;47062;-89
2022/05/17 06:53:07;;;;;;;;;8.25;7.00;;;;;24.04;51.80;101781.50;6142592;23;45765;-90
2022/05/17 06:55:32;;;;;;;;;6.00;6.00;;;;;23.89;51.79;101754.25;6118810;23;45385;-89
2022/05/17 06:57:58;;;;;;;;;9.25;7.75;;;;;23.84;52.13;101740.34;6169260;23;45434;-90
2022/05/17 07:00:23;;;;;;;;;9.00;7.25;;;;;24.32;52.04;101821.06;6119851;23;47179;-89
2022/05/17 07:02:49;;;;;;;;;6.00;5.75;;;;;24.17;52.24;101799.16;6112644;23;45833;-88
2022/05/17 07:05:14;;;;;;;;;7.00;7.00;;;;;23.89;52.40;101764.22;6113880;23;45671;-88
2022/05/17 07:07:40;;;;;;;;;8.25;5.75;;;;;23.50;52.50;101696.06;6119709;23;45766;-89
2022/05/17 07:13:08;;;;;;;;;9.40;9.40;;;;;23.88;52.13;101765.25;6170603;23;45458;-91
2022/05/17 07:15:43;;;;;;;;;9.00;8.00;;;;;24.07;52.04;101799.28;6169250;23;45674;-88
2022/05/17 07:18:09;;;;;;;;;9.80;8.20;;;;;23.81;52.55;101756.94;6118764;23;45521;-90
2022/05/17 07:20:35;;;;;;;;;8.60;8.60;;;;;23.93;52.28;101766.44;6165480;23;46275;-87
2022/05/17 07:23:01;;;;;;;;;9.00;8.00;;;;;23.87;52.45;101756.25;6134268;23;45628;-88
2022/05/17 07:25:26;;;;;;;;;10.25;10.00;;;;;23.64;52.58;101731.69;6138307;23;45463;-89
2022/05/17 07:27:52;;;;;;;;;10.00;9.75;;;;;23.89;52.57;101765.09;6116029;23;45577;-87
2022/05/17 07:50:13;;;;;;;;;15.20;13.20;;;;;23.22;55.83;101818.16;5108933;27;46101;-88
2022/05/17 07:52:38;;;;;;;;;11.50;10.75;;;;;23.48;56.08;101856.00;5066813;27;45882;-89
2022/05/17 07:55:04;;;;;;;;;11.50;10.50;;;;;23.46;55.67;101841.78;5072400;27;45244;-87
2022/05/17 17:44:45;;;;;;;;;2.00;2.00;;;;;24.87;49.64;101789.78;5098535;27;45504;-87
